createdAt,value
2022-11-10T00:00:32.316Z,1024.90
2022-11-10T00:01:32.908Z,1024.83
2022-11-10T00:02:33.502Z,1024.83
2022-11-10T00:03:34.096Z,1024.84
2022-11-10T00:04:34.709Z,1024.89
2022-11-10T00:05:35.360Z,1024.85
2022-11-10T00:06:36.003Z,1024.99
2022-11-10T00:07:36.658Z,1024.87
2022-11-10T00:08:37.254Z,1024.93
2022-11-10T00:09:37.868Z,1024.91
2022-11-10T00:10:38.464Z,1024.86
2022-11-10T00:11:39.059Z,1024.91
2022-11-10T00:12:39.652Z,1024.96
2022-11-10T00:13:40.249Z,1024.90
2022-11-10T00:14:40.844Z,1024.89
2022-11-10T00:15:41.440Z,1024.84
2022-11-10T00:16:42.034Z,1024.93
2022-11-10T00:17:42.627Z,1024.91
2022-11-10T00:18:43.221Z,1024.90
2022-11-10T00:19:43.818Z,1024.86
2022-11-10T00:20:44.563Z,1024.86
2022-11-10T00:21:45.195Z,1024.89
2022-11-10T00:22:45.791Z,1024.89
2022-11-10T00:23:46.385Z,1024.90
2022-11-10T00:24:46.979Z,1024.86
2022-11-10T00:25:47.623Z,1024.83
2022-11-10T00:26:48.218Z,1024.85
2022-11-10T00:27:48.812Z,1024.79
2022-11-10T00:28:49.410Z,1024.82
2022-11-10T00:29:50.005Z,1024.84
2022-11-10T00:30:51.449Z,1024.82
2022-11-10T00:31:52.894Z,1024.84
2022-11-10T00:32:53.489Z,1024.86
2022-11-10T00:33:54.238Z,1024.85
2022-11-10T00:34:54.830Z,1024.77
2022-11-10T00:35:55.474Z,1024.82
2022-11-10T00:36:56.069Z,1024.81
2022-11-10T00:37:56.662Z,1024.90
2022-11-10T00:38:57.258Z,1024.85
2022-11-10T00:39:57.854Z,1024.93
2022-11-10T00:40:58.447Z,1024.91
2022-11-10T00:41:59.039Z,1024.88
2022-11-10T00:42:59.635Z,1024.91
2022-11-10T00:44:00.231Z,1025.00
2022-11-10T00:45:00.826Z,1024.95
2022-11-10T00:46:01.420Z,1024.88
2022-11-10T00:47:02.014Z,1024.97
2022-11-10T00:48:02.611Z,1024.94
2022-11-10T00:49:04.054Z,1024.87
2022-11-10T00:50:04.651Z,1024.87
2022-11-10T00:51:05.250Z,1024.92
2022-11-10T00:52:06.638Z,1024.90
2022-11-10T00:53:07.238Z,1024.90
2022-11-10T00:54:07.829Z,1024.91
2022-11-10T00:55:08.426Z,1024.88
2022-11-10T00:56:09.019Z,1024.86
2022-11-10T00:57:09.614Z,1024.81
2022-11-10T00:58:10.209Z,1024.82
2022-11-10T00:59:10.808Z,1024.81
2022-11-10T01:00:11.401Z,1024.80
2022-11-10T01:01:12.127Z,1024.85
2022-11-10T01:02:12.734Z,1024.85
2022-11-10T01:03:13.330Z,1024.84
2022-11-10T01:04:13.923Z,1024.84
2022-11-10T01:05:14.519Z,1024.77
2022-11-10T01:06:15.178Z,1024.88
2022-11-10T01:07:15.803Z,1024.82
2022-11-10T01:08:16.404Z,1024.88
2022-11-10T01:09:17.066Z,1024.81
2022-11-10T01:10:17.719Z,1024.85
2022-11-10T01:11:18.323Z,1024.83
2022-11-10T01:12:18.910Z,1024.79
2022-11-10T01:13:19.672Z,1024.78
2022-11-10T01:14:20.467Z,1024.74
2022-11-10T01:15:27.104Z,1024.81
2022-11-10T01:16:22.673Z,1024.85
2022-11-10T01:17:23.270Z,1024.83
2022-11-10T01:18:23.863Z,1024.78
2022-11-10T01:19:24.459Z,1024.82
2022-11-10T01:20:25.054Z,1024.82
2022-11-10T01:21:25.651Z,1024.80
2022-11-10T01:22:26.243Z,1024.86
2022-11-10T01:23:26.841Z,1024.85
2022-11-10T01:24:27.431Z,1024.92
2022-11-10T01:25:28.027Z,1024.80
2022-11-10T01:26:28.622Z,1024.85
2022-11-10T01:27:29.216Z,1024.81
2022-11-10T01:28:29.814Z,1024.89
2022-11-10T01:29:30.404Z,1024.78
2022-11-10T01:30:30.997Z,1024.84
2022-11-10T01:31:31.595Z,1024.84
2022-11-10T01:32:32.193Z,1024.84
2022-11-10T01:33:32.786Z,1024.83
2022-11-10T01:34:33.529Z,1024.82
2022-11-10T01:35:34.977Z,1024.86
2022-11-10T01:36:35.619Z,1024.83
2022-11-10T01:37:36.263Z,1024.86
2022-11-10T01:38:36.859Z,1024.82
2022-11-10T01:39:38.302Z,1024.94
2022-11-10T01:40:38.954Z,1024.83
2022-11-10T01:41:39.545Z,1024.82
2022-11-10T01:42:40.142Z,1024.84
2022-11-10T01:43:40.736Z,1024.85
2022-11-10T01:44:41.338Z,1024.89
2022-11-10T01:45:41.924Z,1024.78
2022-11-10T01:46:42.521Z,1024.82
2022-11-10T01:47:43.115Z,1024.83
2022-11-10T01:48:43.710Z,1024.85
2022-11-10T01:49:44.308Z,1024.78
2022-11-10T01:50:44.903Z,1024.83
2022-11-10T01:51:45.496Z,1024.82
2022-11-10T01:52:46.091Z,1024.78
2022-11-10T01:53:46.686Z,1024.84
2022-11-10T01:54:47.343Z,1024.75
2022-11-10T01:55:47.936Z,1024.81
2022-11-10T01:56:48.530Z,1024.80
2022-11-10T01:57:49.127Z,1024.76
2022-11-10T01:58:49.727Z,1024.77
2022-11-10T01:59:50.318Z,1024.74
2022-11-10T02:00:50.980Z,1024.78
2022-11-10T02:01:51.565Z,1024.74
2022-11-10T02:02:52.160Z,1024.77
2022-11-10T02:03:52.759Z,1024.72
2022-11-10T02:04:53.445Z,1024.73
2022-11-10T02:05:54.041Z,1024.80
2022-11-10T02:06:54.691Z,1024.83
2022-11-10T02:07:55.406Z,1024.78
2022-11-10T02:08:56.001Z,1024.71
2022-11-10T02:09:56.594Z,1024.77
2022-11-10T02:10:57.187Z,1024.75
2022-11-10T02:11:57.783Z,1024.71
2022-11-10T02:12:58.377Z,1024.73
2022-11-10T02:13:58.978Z,1024.75
2022-11-10T02:14:59.569Z,1024.77
2022-11-10T02:16:00.964Z,1024.78
2022-11-10T02:17:01.564Z,1024.82
2022-11-10T02:18:02.153Z,1024.79
2022-11-10T02:19:02.750Z,1024.84
2022-11-10T02:20:03.345Z,1024.85
2022-11-10T02:21:03.942Z,1024.80
2022-11-10T02:22:04.535Z,1024.81
2022-11-10T02:23:05.131Z,1024.77
2022-11-10T02:24:05.724Z,1024.81
2022-11-10T02:25:06.321Z,1024.82
2022-11-10T02:26:06.916Z,1024.84
2022-11-10T02:27:07.512Z,1024.82
2022-11-10T02:28:08.107Z,1024.79
2022-11-10T02:29:08.702Z,1024.84
2022-11-10T02:30:09.363Z,1024.80
2022-11-10T02:31:09.954Z,1024.75
2022-11-10T02:32:10.549Z,1024.77
2022-11-10T02:33:11.145Z,1024.82
2022-11-10T02:34:11.742Z,1024.77
2022-11-10T02:35:12.335Z,1024.84
2022-11-10T02:36:12.933Z,1024.79
2022-11-10T02:37:13.523Z,1024.79
2022-11-10T02:38:14.119Z,1024.72
2022-11-10T02:39:15.564Z,1024.72
2022-11-10T02:40:16.316Z,1024.77
2022-11-10T02:41:17.056Z,1024.75
2022-11-10T02:42:17.697Z,1024.82
2022-11-10T02:43:18.322Z,1024.77
2022-11-10T02:44:18.913Z,1024.71
2022-11-10T02:45:19.571Z,1024.75
2022-11-10T02:46:20.164Z,1024.76
2022-11-10T02:47:20.808Z,1024.72
2022-11-10T02:48:21.404Z,1024.75
2022-11-10T02:49:22.000Z,1024.72
2022-11-10T02:50:22.595Z,1024.67
2022-11-10T02:51:23.193Z,1024.74
2022-11-10T02:52:23.781Z,1024.68
2022-11-10T02:53:24.719Z,1024.62
2022-11-10T02:54:25.460Z,1024.66
2022-11-10T02:55:26.055Z,1024.73
2022-11-10T02:56:26.649Z,1024.69
2022-11-10T02:57:27.245Z,1024.65
2022-11-10T02:58:27.842Z,1024.64
2022-11-10T02:59:28.436Z,1024.64
2022-11-10T03:00:29.030Z,1024.64
2022-11-10T03:01:29.650Z,1024.66
2022-11-10T03:02:32.382Z,1024.64
2022-11-10T03:03:31.880Z,1024.66
2022-11-10T03:04:32.474Z,1024.65
2022-11-10T03:05:33.067Z,1024.57
2022-11-10T03:06:33.707Z,1024.66
2022-11-10T03:07:34.288Z,1024.66
2022-11-10T03:08:34.883Z,1024.61
2022-11-10T03:09:35.540Z,1024.65
2022-11-10T03:10:36.138Z,1024.69
2022-11-10T03:11:36.734Z,1024.73
2022-11-10T03:12:37.326Z,1024.60
2022-11-10T03:13:59.059Z,1024.71
2022-11-10T03:14:39.521Z,1024.62
2022-11-10T03:15:40.103Z,1024.68
2022-11-10T03:16:40.700Z,1024.70
2022-11-10T03:17:41.295Z,1024.66
2022-11-10T03:18:41.888Z,1024.59
2022-11-10T03:19:42.486Z,1024.61
2022-11-10T03:20:43.081Z,1024.62
2022-11-10T03:21:43.672Z,1024.65
2022-11-10T03:22:44.267Z,1024.61
2022-11-10T03:23:44.863Z,1024.64
2022-11-10T03:24:45.459Z,1024.58
2022-11-10T03:25:46.905Z,1024.58
2022-11-10T03:26:47.500Z,1024.52
2022-11-10T03:27:48.096Z,1024.56
2022-11-10T03:28:48.691Z,1024.52
2022-11-10T03:29:49.285Z,1024.47
2022-11-10T03:30:49.881Z,1024.51
2022-11-10T03:31:50.480Z,1024.48
2022-11-10T03:32:51.137Z,1024.56
2022-11-10T03:33:51.731Z,1024.56
2022-11-10T03:34:52.327Z,1024.56
2022-11-10T03:35:52.924Z,1024.52
2022-11-10T03:36:53.518Z,1024.58
2022-11-10T03:37:54.112Z,1024.49
2022-11-10T03:38:54.708Z,1024.49
2022-11-10T03:39:55.303Z,1024.49
2022-11-10T03:41:57.639Z,1024.49
2022-11-10T03:42:58.232Z,1024.47
2022-11-10T03:43:58.831Z,1024.44
2022-11-10T03:45:00.335Z,1024.43
2022-11-10T03:46:00.931Z,1024.56
2022-11-10T03:47:01.590Z,1024.55
2022-11-10T03:48:02.185Z,1024.49
2022-11-10T03:49:02.779Z,1024.46
2022-11-10T03:50:03.373Z,1024.53
2022-11-10T03:51:03.967Z,1024.61
2022-11-10T03:52:04.562Z,1024.52
2022-11-10T03:53:05.212Z,1024.57
2022-11-10T03:54:05.861Z,1024.49
2022-11-10T03:55:06.458Z,1024.47
2022-11-10T03:56:07.053Z,1024.51
2022-11-10T03:57:07.698Z,1024.53
2022-11-10T03:58:08.292Z,1024.51
2022-11-10T03:59:08.886Z,1024.48
2022-11-10T04:00:09.483Z,1024.46
2022-11-10T04:01:10.926Z,1024.42
2022-11-10T04:02:11.577Z,1024.41
2022-11-10T04:03:12.181Z,1024.45
2022-11-10T04:04:12.772Z,1024.41
2022-11-10T04:05:13.366Z,1024.45
2022-11-10T04:06:13.962Z,1024.41
2022-11-10T04:07:14.593Z,1024.35
2022-11-10T04:08:15.224Z,1024.41
2022-11-10T04:09:15.885Z,1024.39
2022-11-10T04:10:16.475Z,1024.40
2022-11-10T04:11:17.074Z,1024.37
2022-11-10T04:12:22.121Z,1024.45
2022-11-10T04:13:19.505Z,1024.48
2022-11-10T04:14:20.208Z,1024.44
2022-11-10T04:15:20.802Z,1024.41
2022-11-10T04:16:21.401Z,1024.47
2022-11-10T04:17:21.994Z,1024.41
2022-11-10T04:18:22.586Z,1024.41
2022-11-10T04:19:23.180Z,1024.42
2022-11-10T04:20:23.776Z,1024.41
2022-11-10T04:21:24.369Z,1024.42
2022-11-10T04:22:24.965Z,1024.41
2022-11-10T04:23:25.691Z,1024.40
2022-11-10T04:24:26.338Z,1024.44
2022-11-10T04:25:26.934Z,1024.49
2022-11-10T04:26:27.524Z,1024.49
2022-11-10T04:27:28.118Z,1024.41
2022-11-10T04:28:28.715Z,1024.49
2022-11-10T04:29:29.359Z,1024.48
2022-11-10T04:30:29.956Z,1024.53
2022-11-10T04:31:30.552Z,1024.51
2022-11-10T04:32:31.145Z,1024.53
2022-11-10T04:33:31.737Z,1024.44
2022-11-10T04:34:32.336Z,1024.49
2022-11-10T04:35:32.927Z,1024.47
2022-11-10T04:36:33.523Z,1024.46
2022-11-10T04:37:34.919Z,1024.46
2022-11-10T04:38:35.578Z,1024.50
2022-11-10T04:39:36.175Z,1024.54
2022-11-10T04:40:36.769Z,1024.50
2022-11-10T04:41:37.364Z,1024.50
2022-11-10T04:42:37.959Z,1024.56
2022-11-10T04:43:38.552Z,1024.48
2022-11-10T04:44:39.163Z,1024.52
2022-11-10T04:45:39.804Z,1024.48
2022-11-10T04:46:40.439Z,1024.48
2022-11-10T04:47:41.027Z,1024.56
2022-11-10T04:48:41.622Z,1024.55
2022-11-10T04:49:42.218Z,1024.50
2022-11-10T04:50:42.812Z,1024.50
2022-11-10T04:51:43.445Z,1024.53
2022-11-10T04:52:44.034Z,1024.45
2022-11-10T04:53:44.628Z,1024.56
2022-11-10T04:54:45.222Z,1024.56
2022-11-10T04:55:45.866Z,1024.53
2022-11-10T04:56:46.464Z,1024.55
2022-11-10T04:57:47.113Z,1024.59
2022-11-10T04:58:47.705Z,1024.55
2022-11-10T04:59:48.303Z,1024.62
2022-11-10T05:00:48.928Z,1024.55
2022-11-10T05:01:49.565Z,1024.55
2022-11-10T05:02:50.210Z,1024.56
2022-11-10T05:03:50.804Z,1024.56
2022-11-10T05:04:52.315Z,1024.59
2022-11-10T05:05:52.910Z,1024.58
2022-11-10T05:06:53.531Z,1024.59
2022-11-10T05:07:54.113Z,1024.59
2022-11-10T05:08:54.709Z,1024.56
2022-11-10T05:09:55.307Z,1024.59
2022-11-10T05:10:55.900Z,1024.67
2022-11-10T05:11:56.494Z,1024.67
2022-11-10T05:12:57.088Z,1024.64
2022-11-10T05:13:57.681Z,1024.61
2022-11-10T05:14:58.277Z,1024.64
2022-11-10T05:15:58.871Z,1024.56
2022-11-10T05:16:59.468Z,1024.64
2022-11-10T05:18:00.060Z,1024.62
2022-11-10T05:19:00.657Z,1024.61
2022-11-10T05:20:01.312Z,1024.60
2022-11-10T05:21:01.909Z,1024.62
2022-11-10T05:22:02.505Z,1024.63
2022-11-10T05:23:03.098Z,1024.64
2022-11-10T05:24:03.690Z,1024.62
2022-11-10T05:25:04.289Z,1024.62
2022-11-10T05:26:04.883Z,1024.62
2022-11-10T05:27:05.481Z,1024.62
2022-11-10T05:28:06.079Z,1024.57
2022-11-10T05:29:06.668Z,1024.66
2022-11-10T05:30:07.261Z,1024.57
2022-11-10T05:31:07.856Z,1024.63
2022-11-10T05:32:08.467Z,1024.62
2022-11-10T05:33:09.045Z,1024.67
2022-11-10T05:34:09.640Z,1024.63
2022-11-10T05:35:10.235Z,1024.60
2022-11-10T05:36:10.830Z,1024.59
2022-11-10T05:37:11.428Z,1024.60
2022-11-10T05:38:12.018Z,1024.60
2022-11-10T05:39:12.612Z,1024.61
2022-11-10T05:40:13.205Z,1024.60
2022-11-10T05:41:13.799Z,1024.59
2022-11-10T05:42:14.396Z,1024.57
2022-11-10T05:43:14.994Z,1024.60
2022-11-10T05:44:15.586Z,1024.55
2022-11-10T05:45:16.182Z,1024.60
2022-11-10T05:46:16.775Z,1024.65
2022-11-10T05:47:17.368Z,1024.60
2022-11-10T05:48:17.963Z,1024.56
2022-11-10T05:49:18.608Z,1024.60
2022-11-10T05:50:19.202Z,1024.59
2022-11-10T05:51:19.797Z,1024.57
2022-11-10T05:52:20.392Z,1024.56
2022-11-10T05:53:21.262Z,1024.53
2022-11-10T05:54:22.102Z,1024.58
2022-11-10T05:55:22.695Z,1024.59
2022-11-10T05:56:23.291Z,1024.59
2022-11-10T05:57:23.887Z,1024.66
2022-11-10T05:58:24.482Z,1024.56
2022-11-10T05:59:25.126Z,1024.54
2022-11-10T06:00:25.721Z,1024.57
2022-11-10T06:01:26.316Z,1024.56
2022-11-10T06:02:26.910Z,1024.50
2022-11-10T06:03:27.743Z,1024.56
2022-11-10T06:04:28.599Z,1024.56
2022-11-10T06:05:31.301Z,1024.54
2022-11-10T06:06:31.721Z,1024.56
2022-11-10T06:07:32.314Z,1024.56
2022-11-10T06:08:32.908Z,1024.50
2022-11-10T06:09:33.553Z,1024.50
2022-11-10T06:10:34.198Z,1024.51
2022-11-10T06:11:34.943Z,1024.58
2022-11-10T06:12:35.538Z,1024.51
2022-11-10T06:13:36.133Z,1024.60
2022-11-10T06:14:36.727Z,1024.55
2022-11-10T06:15:37.323Z,1024.66
2022-11-10T06:16:37.919Z,1024.61
2022-11-10T06:17:38.516Z,1024.64
2022-11-10T06:18:39.172Z,1024.66
2022-11-10T06:19:56.339Z,1024.61
2022-11-10T06:20:56.933Z,1024.64
2022-11-10T06:22:03.629Z,1024.68
2022-11-10T06:22:59.119Z,1024.63
2022-11-10T06:23:59.716Z,1024.67
2022-11-10T06:25:00.309Z,1024.71
2022-11-10T06:26:00.904Z,1024.67
2022-11-10T06:27:01.500Z,1024.72
2022-11-10T06:28:02.098Z,1024.72
2022-11-10T06:29:02.753Z,1024.66
2022-11-10T06:30:03.348Z,1024.65
2022-11-10T06:31:03.993Z,1024.70
2022-11-10T06:32:04.584Z,1024.66
2022-11-10T06:33:05.482Z,1024.66
2022-11-10T06:34:06.080Z,1024.68
2022-11-10T06:35:06.673Z,1024.69
2022-11-10T06:36:07.319Z,1024.79
2022-11-10T06:37:08.012Z,1024.76
2022-11-10T06:38:08.607Z,1024.66
2022-11-10T06:39:09.202Z,1024.71
2022-11-10T06:40:09.797Z,1024.80
2022-11-10T06:41:10.397Z,1024.83
2022-11-10T06:42:11.102Z,1024.79
2022-11-10T06:43:11.695Z,1024.82
2022-11-10T06:44:12.290Z,1024.88
2022-11-10T06:45:12.884Z,1024.76
2022-11-10T06:46:13.481Z,1024.85
2022-11-10T06:47:14.077Z,1024.89
2022-11-10T06:48:14.674Z,1024.86
2022-11-10T06:49:15.268Z,1024.86
2022-11-10T06:50:15.860Z,1024.92
2022-11-10T06:51:16.453Z,1024.88
2022-11-10T06:52:17.048Z,1024.95
2022-11-10T06:53:18.431Z,1024.85
2022-11-10T06:54:19.232Z,1024.82
2022-11-10T06:55:19.827Z,1024.88
2022-11-10T06:56:20.421Z,1024.93
2022-11-10T06:57:21.024Z,1024.87
2022-11-10T06:58:21.612Z,1024.92
2022-11-10T06:59:22.206Z,1024.90
2022-11-10T07:00:22.806Z,1024.93
2022-11-10T07:01:23.440Z,1024.93
2022-11-10T07:02:24.021Z,1024.95
2022-11-10T07:03:25.002Z,1024.96
2022-11-10T07:04:25.791Z,1024.96
2022-11-10T07:05:26.383Z,1025.02
2022-11-10T07:06:26.979Z,1025.02
2022-11-10T07:07:27.575Z,1025.07
2022-11-10T07:08:28.171Z,1025.07
2022-11-10T07:09:28.772Z,1025.07
2022-11-10T07:10:29.477Z,1025.10
2022-11-10T07:11:30.068Z,1025.01
2022-11-10T07:12:30.663Z,1025.07
2022-11-10T07:13:31.257Z,1025.09
2022-11-10T07:14:31.854Z,1025.04
2022-11-10T07:15:32.448Z,1025.10
2022-11-10T07:16:33.044Z,1025.10
2022-11-10T07:17:33.637Z,1025.11
2022-11-10T07:18:34.234Z,1025.18
2022-11-10T07:19:34.879Z,1025.23
2022-11-10T07:20:35.473Z,1025.19
2022-11-10T07:21:36.869Z,1025.19
2022-11-10T07:22:37.464Z,1025.21
2022-11-10T07:23:38.059Z,1025.18
2022-11-10T07:24:38.654Z,1025.21
2022-11-10T07:25:39.312Z,1025.26
2022-11-10T07:26:39.907Z,1025.28
2022-11-10T07:27:40.501Z,1025.21
2022-11-10T07:28:41.099Z,1025.24
2022-11-10T07:29:41.695Z,1025.23
2022-11-10T07:30:42.292Z,1025.29
2022-11-10T07:31:42.883Z,1025.26
2022-11-10T07:32:43.478Z,1025.24
2022-11-10T07:33:44.149Z,1025.28
2022-11-10T07:34:44.758Z,1025.27
2022-11-10T07:35:45.358Z,1025.27
2022-11-10T07:36:45.950Z,1025.29
2022-11-10T07:37:46.549Z,1025.32
2022-11-10T07:38:47.139Z,1025.37
2022-11-10T07:39:47.733Z,1025.34
2022-11-10T07:40:48.329Z,1025.32
2022-11-10T07:41:52.457Z,1025.37
2022-11-10T07:42:50.666Z,1025.37
2022-11-10T07:43:51.309Z,1025.39
2022-11-10T07:44:51.950Z,1025.37
2022-11-10T07:45:52.544Z,1025.42
2022-11-10T07:46:53.990Z,1025.39
2022-11-10T07:47:54.582Z,1025.42
2022-11-10T07:48:55.180Z,1025.46
2022-11-10T07:49:55.838Z,1025.50
2022-11-10T07:50:56.438Z,1025.48
2022-11-10T07:51:57.033Z,1025.51
2022-11-10T07:52:57.627Z,1025.49
2022-11-10T07:53:58.222Z,1025.56
2022-11-10T07:54:58.817Z,1025.53
2022-11-10T07:55:59.409Z,1025.53
2022-11-10T07:57:00.004Z,1025.56
2022-11-10T07:58:00.601Z,1025.51
2022-11-10T07:59:01.257Z,1025.60
2022-11-10T08:00:01.901Z,1025.57
2022-11-10T08:01:02.494Z,1025.55
2022-11-10T08:02:03.147Z,1025.50
2022-11-10T08:03:03.783Z,1025.57
2022-11-10T08:04:04.373Z,1025.65
2022-11-10T08:05:04.964Z,1025.73
2022-11-10T08:06:05.557Z,1025.69
2022-11-10T08:07:07.082Z,1025.74
2022-11-10T08:08:07.758Z,1025.78
2022-11-10T08:09:08.356Z,1025.76
2022-11-10T08:10:08.948Z,1025.84
2022-11-10T08:11:09.545Z,1025.85
2022-11-10T08:12:10.140Z,1025.83
2022-11-10T08:13:10.740Z,1025.84
2022-11-10T08:14:11.330Z,1025.80
2022-11-10T08:15:11.926Z,1025.86
2022-11-10T08:16:12.520Z,1025.98
2022-11-10T08:17:13.115Z,1025.97
2022-11-10T08:18:13.710Z,1025.97
2022-11-10T08:19:14.304Z,1025.93
2022-11-10T08:20:14.900Z,1025.92
2022-11-10T08:21:15.492Z,1025.86
2022-11-10T08:22:16.085Z,1026.01
2022-11-10T08:23:16.681Z,1025.95
2022-11-10T08:24:17.275Z,1025.98
2022-11-10T08:25:17.871Z,1025.98
2022-11-10T08:26:18.467Z,1025.95
2022-11-10T08:27:19.061Z,1026.02
2022-11-10T08:28:19.658Z,1026.01
2022-11-10T08:29:20.312Z,1026.04
2022-11-10T08:30:20.907Z,1026.07
2022-11-10T08:31:21.498Z,1026.07
2022-11-10T08:32:22.940Z,1026.11
2022-11-10T08:33:23.988Z,1026.15
2022-11-10T08:34:24.783Z,1026.10
2022-11-10T08:35:25.379Z,1026.15
2022-11-10T08:36:25.975Z,1026.18
2022-11-10T08:37:26.572Z,1026.21
2022-11-10T08:38:27.166Z,1026.29
2022-11-10T08:39:38.568Z,1026.24
2022-11-10T08:40:29.408Z,1026.14
2022-11-10T08:41:29.997Z,1026.20
2022-11-10T08:42:30.591Z,1026.22
2022-11-10T08:43:31.187Z,1026.22
2022-11-10T08:44:31.780Z,1026.30
2022-11-10T08:45:32.376Z,1026.28
2022-11-10T08:46:32.972Z,1026.31
2022-11-10T08:47:33.568Z,1026.27
2022-11-10T08:48:35.011Z,1026.38
2022-11-10T08:49:35.655Z,1026.31
2022-11-10T08:50:36.246Z,1026.43
2022-11-10T08:51:39.157Z,1026.41
2022-11-10T08:52:38.435Z,1026.47
2022-11-10T08:53:39.031Z,1026.45
2022-11-10T08:54:39.633Z,1026.45
2022-11-10T08:55:40.292Z,1026.44
2022-11-10T08:56:40.888Z,1026.45
2022-11-10T08:57:41.488Z,1026.38
2022-11-10T08:58:48.787Z,1026.35
2022-11-10T08:59:43.732Z,1026.44
2022-11-10T09:00:44.327Z,1026.35
2022-11-10T09:01:45.072Z,1026.39
2022-11-10T09:02:45.673Z,1026.43
2022-11-10T09:03:46.324Z,1026.38
2022-11-10T09:04:46.947Z,1026.32
2022-11-10T09:05:47.554Z,1026.38
2022-11-10T09:06:48.242Z,1026.38
2022-11-10T09:07:49.638Z,1026.42
2022-11-10T09:08:50.236Z,1026.37
2022-11-10T09:10:05.999Z,1026.43
2022-11-10T09:10:52.476Z,1026.45
2022-11-10T09:11:53.065Z,1026.44
2022-11-10T09:12:53.813Z,1026.44
2022-11-10T09:13:54.409Z,1026.43
2022-11-10T09:14:55.005Z,1026.47
2022-11-10T09:15:55.601Z,1026.49
2022-11-10T09:16:56.199Z,1026.47
2022-11-10T09:17:56.796Z,1026.38
2022-11-10T09:18:57.392Z,1026.47
2022-11-10T09:19:58.041Z,1026.50
2022-11-10T09:20:58.628Z,1026.41
2022-11-10T09:21:59.285Z,1026.31
2022-11-10T09:22:59.880Z,1026.46
2022-11-10T09:24:00.476Z,1026.44
2022-11-10T09:25:01.071Z,1026.46
2022-11-10T09:26:01.666Z,1026.40
2022-11-10T09:27:02.259Z,1026.46
2022-11-10T09:28:02.858Z,1026.46
2022-11-10T09:29:03.519Z,1026.49
2022-11-10T09:30:04.190Z,1026.49
2022-11-10T09:31:04.771Z,1026.52
2022-11-10T09:32:05.367Z,1026.49
2022-11-10T09:33:05.963Z,1026.50
2022-11-10T09:34:06.559Z,1026.49
2022-11-10T09:35:07.156Z,1026.46
2022-11-10T09:36:08.605Z,1026.49
2022-11-10T09:37:09.198Z,1026.50
2022-11-10T09:38:09.793Z,1026.42
2022-11-10T09:39:10.389Z,1026.44
2022-11-10T09:40:12.979Z,1026.54
2022-11-10T09:41:12.574Z,1026.44
2022-11-10T09:42:13.170Z,1026.47
2022-11-10T09:43:13.764Z,1026.50
2022-11-10T09:44:14.361Z,1026.50
2022-11-10T09:45:14.960Z,1026.56
2022-11-10T09:46:15.554Z,1026.48
2022-11-10T09:47:18.940Z,1026.47
2022-11-10T09:48:17.741Z,1026.47
2022-11-10T09:49:18.385Z,1026.49
2022-11-10T09:50:18.986Z,1026.54
2022-11-10T09:51:20.374Z,1026.47
2022-11-10T09:52:20.972Z,1026.53
2022-11-10T09:53:21.568Z,1026.53
2022-11-10T09:54:23.016Z,1026.48
2022-11-10T09:55:23.675Z,1026.54
2022-11-10T09:56:24.274Z,1026.59
2022-11-10T09:57:24.871Z,1026.52
2022-11-10T09:58:25.466Z,1026.48
2022-11-10T09:59:26.062Z,1026.51
2022-11-10T10:00:26.657Z,1026.54
2022-11-10T10:01:27.360Z,1026.60
2022-11-10T10:02:27.968Z,1026.54
2022-11-10T10:03:28.565Z,1026.56
2022-11-10T10:04:29.166Z,1026.56
2022-11-10T10:05:29.756Z,1026.56
2022-11-10T10:06:43.660Z,1026.58
2022-11-10T10:07:31.990Z,1026.62
2022-11-10T10:08:32.577Z,1026.57
2022-11-10T10:09:33.224Z,1026.57
2022-11-10T10:10:33.816Z,1026.51
2022-11-10T10:11:35.212Z,1026.52
2022-11-10T10:12:35.869Z,1026.57
2022-11-10T10:13:36.466Z,1026.52
2022-11-10T10:14:37.063Z,1026.48
2022-11-10T10:15:37.660Z,1026.51
2022-11-10T10:16:38.256Z,1026.46
2022-11-10T10:17:41.426Z,1026.59
2022-11-10T10:18:40.440Z,1026.49
2022-11-10T10:19:41.037Z,1026.45
2022-11-10T10:20:41.698Z,1026.47
2022-11-10T10:21:42.294Z,1026.48
2022-11-10T10:22:43.690Z,1026.50
2022-11-10T10:24:08.473Z,1026.48
2022-11-10T10:24:45.926Z,1026.45
2022-11-10T10:25:46.519Z,1026.53
2022-11-10T10:26:47.116Z,1026.46
2022-11-10T10:27:47.711Z,1026.42
2022-11-10T10:28:48.311Z,1026.42
2022-11-10T10:29:48.908Z,1026.41
2022-11-10T10:30:49.503Z,1026.40
2022-11-10T10:31:50.100Z,1026.41
2022-11-10T10:32:50.693Z,1026.36
2022-11-10T10:33:51.306Z,1026.47
2022-11-10T10:34:51.885Z,1026.42
2022-11-10T10:35:52.480Z,1026.51
2022-11-10T10:36:53.077Z,1026.48
2022-11-10T10:37:53.679Z,1026.47
2022-11-10T10:38:54.283Z,1026.48
2022-11-10T10:39:54.968Z,1026.50
2022-11-10T10:40:55.628Z,1026.47
2022-11-10T10:41:56.224Z,1026.45
2022-11-10T10:42:56.882Z,1026.52
2022-11-10T10:43:58.278Z,1026.47
2022-11-10T10:44:58.894Z,1026.45
2022-11-10T10:45:59.497Z,1026.47
2022-11-10T10:47:00.105Z,1026.45
2022-11-10T10:48:00.687Z,1026.42
2022-11-10T10:49:26.956Z,1026.47
2022-11-10T10:50:02.924Z,1026.47
2022-11-10T10:51:03.520Z,1026.45
2022-11-10T10:52:04.113Z,1026.41
2022-11-10T10:53:04.779Z,1026.45
2022-11-10T10:54:05.432Z,1026.41
2022-11-10T10:55:06.028Z,1026.47
2022-11-10T10:56:06.622Z,1026.45
2022-11-10T10:57:07.280Z,1026.42
2022-11-10T10:58:07.877Z,1026.44
2022-11-10T10:59:08.473Z,1026.45
2022-11-10T11:00:09.118Z,1026.50
2022-11-10T11:01:09.781Z,1026.39
2022-11-10T11:02:10.531Z,1026.47
2022-11-10T11:03:11.128Z,1026.44
2022-11-10T11:04:11.724Z,1026.45
2022-11-10T11:05:12.321Z,1026.48
2022-11-10T11:06:12.918Z,1026.40
2022-11-10T11:07:13.558Z,1026.45
2022-11-10T11:08:14.125Z,1026.37
2022-11-10T11:09:14.722Z,1026.50
2022-11-10T11:10:15.321Z,1026.43
2022-11-10T11:11:15.913Z,1026.35
2022-11-10T11:12:16.508Z,1026.46
2022-11-10T11:13:17.105Z,1026.41
2022-11-10T11:14:17.699Z,1026.45
2022-11-10T11:15:18.296Z,1026.46
2022-11-10T11:16:18.945Z,1026.35
2022-11-10T11:17:20.367Z,1026.35
2022-11-10T11:18:21.431Z,1026.42
2022-11-10T11:19:22.257Z,1026.38
2022-11-10T11:20:22.913Z,1026.42
2022-11-10T11:21:23.508Z,1026.38
2022-11-10T11:22:24.202Z,1026.39
2022-11-10T11:23:24.827Z,1026.40
2022-11-10T11:24:25.451Z,1026.38
2022-11-10T11:25:26.047Z,1026.26
2022-11-10T11:26:26.707Z,1026.38
2022-11-10T11:27:27.306Z,1026.36
2022-11-10T11:28:27.980Z,1026.33
2022-11-10T11:29:28.575Z,1026.34
2022-11-10T11:30:29.171Z,1026.26
2022-11-10T11:31:29.769Z,1026.31
2022-11-10T11:32:30.414Z,1026.26
2022-11-10T11:33:31.011Z,1026.30
2022-11-10T11:34:31.606Z,1026.26
2022-11-10T11:35:32.202Z,1026.14
2022-11-10T11:36:32.796Z,1026.16
2022-11-10T11:37:33.394Z,1026.16
2022-11-10T11:38:34.073Z,1026.14
2022-11-10T11:39:34.642Z,1026.16
2022-11-10T11:40:35.302Z,1026.11
2022-11-10T11:41:35.899Z,1026.16
2022-11-10T11:42:36.495Z,1026.14
2022-11-10T11:43:37.088Z,1026.18
2022-11-10T11:44:37.684Z,1026.07
2022-11-10T11:45:38.282Z,1026.12
2022-11-10T11:46:38.877Z,1026.10
2022-11-10T11:47:39.489Z,1026.10
2022-11-10T11:48:40.072Z,1026.09
2022-11-10T11:49:40.671Z,1026.13
2022-11-10T11:50:41.266Z,1026.13
2022-11-10T11:51:41.859Z,1026.01
2022-11-10T11:52:43.305Z,1026.08
2022-11-10T11:53:43.900Z,1026.05
2022-11-10T11:54:44.499Z,1026.03
2022-11-10T11:55:45.096Z,1026.04
2022-11-10T11:56:45.694Z,1026.04
2022-11-10T11:57:46.288Z,1025.94
2022-11-10T11:58:46.941Z,1025.89
2022-11-10T11:59:47.539Z,1025.96
2022-11-10T12:00:48.133Z,1025.91
2022-11-10T12:01:48.728Z,1025.89
2022-11-10T12:02:52.939Z,1025.90
2022-11-10T12:03:50.915Z,1025.90
2022-11-10T12:04:51.509Z,1025.89
2022-11-10T12:05:52.104Z,1025.87
2022-11-10T12:06:52.741Z,1025.89
2022-11-10T12:07:53.492Z,1025.80
2022-11-10T12:08:54.086Z,1025.80
2022-11-10T12:09:54.677Z,1025.80
2022-11-10T12:10:55.325Z,1025.73
2022-11-10T12:11:55.922Z,1025.73
2022-11-10T12:12:56.518Z,1025.79
2022-11-10T12:13:57.118Z,1025.73
2022-11-10T12:14:57.773Z,1025.69